Time;durP1;ratioP1;P1;durP2;ratioP2;P2;SDS_P1;SDS_P2;PMS_P1;PMS_P2;Temp;Humidity;BMP_temperature;BMP_pressure;BME280_temperature;BME280_humidity;BME280_pressure;Samples;Min_cycle;Max_cycle;Signal;HPM_P1;HPM_P2
2022/02/10 00:03:46;;;;;;;8.60;3.08;;;;;;;1.77;60.30;98353.47;5021212;28;20058;-74
2022/02/10 00:20:43;;;;;;;10.23;3.50;;;;;;;1.75;60.12;98348.34;5014794;28;20671;-75
2022/02/10 00:36:04;;;;;;;11.95;3.50;;;;;;;1.87;60.40;98345.50;5017469;28;20053;-75
2022/02/10 00:38:34;;;;;;;9.95;3.20;;;;;;;1.50;61.02;98336.19;5023696;28;20558;-75
2022/02/10 00:41:00;;;;;;;10.25;3.35;;;;;;;1.60;61.41;98348.97;5022788;28;20054;-74
2022/02/10 00:43:26;;;;;;;11.32;3.45;;;;;;;1.63;60.91;98340.38;5027735;28;20037;-73
2022/02/10 00:45:54;;;;;;;10.15;3.53;;;;;;;1.76;60.65;98341.88;5024438;28;20132;-73
2022/02/10 00:48:21;;;;;;;12.43;3.90;;;;;;;1.75;60.50;98342.94;5031320;28;20080;-73
2022/02/10 00:50:50;;;;;;;8.95;3.47;;;;;;;1.72;60.79;98343.47;5032708;28;20404;-74
2022/02/10 00:53:21;;;;;;;9.75;3.38;;;;;;;1.67;61.14;98343.38;5026820;28;20421;-73
2022/02/10 00:55:47;;;;;;;9.75;3.33;;;;;;;1.74;60.83;98341.31;5017334;28;20561;-74
2022/02/10 00:58:22;;;;;;;10.50;3.60;;;;;;;1.60;60.68;98321.22;5022590;28;20045;-74
2022/02/10 01:30:59;;;;;;;7.65;2.53;;;;;;;1.05;60.46;98318.38;5028166;28;20049;-75
2022/02/10 01:33:26;;;;;;;7.07;2.35;;;;;;;1.04;60.17;98306.81;5049455;28;20054;-76
2022/02/10 01:35:53;;;;;;;9.05;2.80;;;;;;;0.98;60.46;98314.00;5032686;28;20394;-74
2022/02/10 01:38:19;;;;;;;10.65;2.65;;;;;;;0.86;60.73;98307.91;5021023;28;20061;-74
2022/02/10 01:40:58;;;;;;;8.07;2.25;;;;;;;1.02;60.35;98313.50;5027683;28;20108;-73
2022/02/10 02:05:40;;;;;;;7.90;2.55;;;;;;;1.02;59.98;98287.41;5027103;28;20100;-74
2022/02/10 02:08:09;;;;;;;7.50;2.40;;;;;;;1.10;59.92;98289.63;5026219;28;20047;-74
2022/02/10 02:10:35;;;;;;;8.00;2.53;;;;;;;1.12;59.86;98292.09;5027803;28;20104;-74
2022/02/10 02:13:02;;;;;;;10.70;2.70;;;;;;;1.09;59.94;98289.88;5030202;28;20041;-73
2022/02/10 02:15:28;;;;;;;10.45;2.35;;;;;;;1.01;60.13;98295.72;5023941;28;20397;-74
2022/02/10 02:17:54;;;;;;;7.90;2.45;;;;;;;0.89;60.61;98288.56;5027389;28;20049;-74
2022/02/10 02:20:21;;;;;;;10.23;2.30;;;;;;;0.76;60.68;98275.44;5022507;28;20029;-74
2022/02/10 02:22:48;;;;;;;7.22;2.22;;;;;;;0.90;60.28;98284.78;5042691;28;20533;-74
2022/02/10 02:25:14;;;;;;;7.95;2.65;;;;;;;0.99;59.96;98274.41;5029700;28;20041;-73
2022/02/10 02:27:45;;;;;;;7.40;1.98;;;;;;;1.05;59.89;98280.69;5016645;28;20085;-74
2022/02/10 02:30:25;;;;;;;7.13;1.85;;;;;;;1.02;59.74;98271.25;5045372;28;20054;-74
2022/02/10 03:08:20;;;;;;;9.43;2.63;;;;;;;0.99;60.17;98232.16;5021998;28;20061;-74
2022/02/10 03:13:20;;;;;;;12.00;2.75;;;;;;;1.09;60.07;98227.97;5020637;28;20054;-73
2022/02/10 04:15:38;;;;;;;10.57;3.00;;;;;;;0.90;61.11;98179.03;5020211;28;20077;-74
2022/02/10 05:15:38;;;;;;;11.38;3.30;;;;;;;0.79;62.19;98135.84;5025052;28;20388;-73
2022/02/10 05:34:00;;;;;;;10.38;2.60;;;;;;;0.63;62.72;98123.28;4968411;28;20531;-73
2022/02/10 05:36:31;;;;;;;9.55;2.80;;;;;;;0.75;62.55;98136.59;4990247;28;20058;-73
2022/02/10 05:39:20;;;;;;;14.75;3.53;;;;;;;0.80;62.30;98139.38;5022447;28;20405;-73
2022/02/10 05:47:38;;;;;;;13.15;3.17;;;;;;;0.75;62.66;98123.13;5016739;28;20096;-71
2022/02/10 05:55:32;;;;;;;10.05;3.40;;;;;;;0.78;62.35;98117.25;5027505;28;20087;-73
2022/02/10 06:52:45;;;;;;;12.13;3.63;;;;;;;0.72;64.21;98094.88;5032259;28;20050;-74
2022/02/10 06:58:18;;;;;;;14.93;3.58;;;;;;;0.89;63.79;98084.00;5014582;28;20050;-76
2022/02/10 07:08:49;;;;;;;20.13;4.25;;;;;;;0.92;63.79;98074.63;5021001;28;20053;-72
2022/02/10 07:47:18;;;;;;;15.00;3.40;;;;;;;1.02;64.41;98055.06;5029483;28;20053;-71
2022/02/10 07:52:35;;;;;;;13.70;3.58;;;;;;;1.00;64.52;98055.31;5032089;28;20050;-71
2022/02/10 07:57:37;;;;;;;14.55;3.70;;;;;;;1.03;64.55;98048.63;5017413;28;20055;-70
2022/02/10 08:49:55;;;;;;;14.10;4.03;;;;;;;1.38;66.89;98033.81;5013440;28;20060;-68
2022/02/10 08:53:26;;;;;;;18.10;4.10;;;;;;;1.36;67.03;98030.59;5017643;28;20057;-69
2022/02/10 09:57:19;;;;;;;14.40;4.60;;;;;;;1.39;70.39;97992.34;5023094;28;20465;-70
2022/02/10 10:00:03;;;;;;;13.32;4.47;;;;;;;1.39;70.74;97993.19;5019638;28;20052;-77
2022/02/10 10:02:46;;;;;;;23.23;5.05;;;;;;;1.33;71.33;97994.22;5025651;28;20533;-69
2022/02/10 10:05:34;;;;;;;15.80;5.00;;;;;;;1.29;71.53;97995.00;5029311;28;22611;-68
2022/02/10 10:13:32;;;;;;;18.48;5.25;;;;;;;1.50;71.27;97993.25;5014281;28;20152;-69
2022/02/10 10:24:05;;;;;;;17.95;5.63;;;;;;;1.33;72.54;97999.63;5031232;28;20037;-69
2022/02/10 10:56:47;;;;;;;16.90;6.28;;;;;;;2.25;70.11;98009.25;5012337;28;20100;-74
2022/02/10 11:39:41;;;;;;;34.05;11.00;;;;;;;3.18;68.02;98026.72;5020799;28;20060;-71
2022/02/10 12:30:51;;;;;;;20.85;7.38;;;;;;;3.82;64.88;98071.28;5036129;28;20064;-71
2022/02/10 12:33:59;;;;;;;25.00;7.40;;;;;;;3.81;64.62;98064.25;5023214;28;20132;-71
2022/02/10 14:14:54;;;;;;;18.52;4.70;;;;;;;3.75;64.22;98170.81;5028001;28;20053;-77
2022/02/10 14:17:32;;;;;;;17.02;4.95;;;;;;;3.72;64.47;98178.63;5036575;28;20049;-81
2022/02/10 14:20:10;;;;;;;18.83;5.65;;;;;;;3.63;64.29;98187.25;5025074;28;20104;-78
2022/02/10 14:22:51;;;;;;;29.38;5.63;;;;;;;3.43;64.65;98171.03;4994317;28;20098;-83
2022/02/10 14:28:03;;;;;;;22.88;4.95;;;;;;;3.38;64.74;98196.97;5045759;28;20207;-81
2022/02/10 14:30:29;;;;;;;21.27;4.90;;;;;;;3.23;65.07;98195.03;5030523;28;20061;-81
2022/02/10 14:32:57;;;;;;;30.23;5.10;;;;;;;3.31;65.20;98196.41;5029821;28;20053;-79
2022/02/10 14:35:35;;;;;;;26.20;5.53;;;;;;;3.33;65.16;98201.53;5032156;28;20572;-81
2022/02/10 16:10:54;;;;;;;23.23;4.78;;;;;;;3.19;63.78;98247.97;4998964;28;20060;-71
2022/02/10 16:21:10;;;;;;;17.33;4.97;;;;;;;3.37;63.06;98262.06;5032702;28;20081;-73
2022/02/10 16:23:36;;;;;;;22.75;5.18;;;;;;;3.36;62.95;98263.16;5033181;28;20068;-73
2022/02/10 16:28:40;;;;;;;19.42;4.75;;;;;;;3.32;62.61;98259.34;5032081;28;20045;-71
2022/02/10 16:31:15;;;;;;;13.13;4.15;;;;;;;3.23;62.90;98245.56;5017354;28;20053;-73
2022/02/10 16:33:52;;;;;;;16.38;4.43;;;;;;;3.37;62.42;98260.19;5045993;28;20042;-71
2022/02/10 16:36:19;;;;;;;15.75;4.22;;;;;;;3.43;62.14;98269.09;5027991;28;20600;-71
2022/02/10 16:38:45;;;;;;;17.30;4.47;;;;;;;3.46;62.09;98263.19;5026725;28;20137;-69
2022/02/10 16:41:16;;;;;;;16.60;4.30;;;;;;;3.31;62.55;98260.44;5042571;28;20131;-70
2022/02/10 16:43:45;;;;;;;16.13;3.95;;;;;;;3.26;63.06;98280.13;5018555;28;20041;-71
2022/02/10 16:46:11;;;;;;;16.50;3.95;;;;;;;3.16;63.05;98253.06;5035143;28;20045;-71
2022/02/10 16:48:38;;;;;;;14.90;4.07;;;;;;;3.19;63.25;98276.84;5022199;28;20092;-71
2022/02/10 16:51:08;;;;;;;18.25;3.67;;;;;;;3.24;63.27;98283.09;5028158;28;20457;-73
2022/02/10 16:53:35;;;;;;;15.48;4.63;;;;;;;3.21;63.24;98278.22;5036880;28;20045;-72
2022/02/10 16:56:09;;;;;;;24.25;6.07;;;;;;;3.14;63.74;98291.16;5022409;28;20473;-71
2022/02/10 16:58:46;;;;;;;22.77;7.30;;;;;;;3.12;63.60;98285.19;5012487;28;20592;-71
2022/02/10 17:04:28;;;;;;;18.88;4.90;;;;;;;2.62;64.25;98217.97;5023250;28;20058;-72
2022/02/10 17:17:46;;;;;;;17.10;4.60;;;;;;;3.08;63.80;98294.91;5012164;28;20049;-72
2022/02/10 17:25:47;;;;;;;15.23;4.40;;;;;;;3.16;63.80;98301.69;5046360;28;20505;-71
2022/02/10 17:28:14;;;;;;;16.88;4.07;;;;;;;3.06;63.93;98294.34;5024997;28;20083;-71
2022/02/10 17:36:02;;;;;;;15.50;3.53;;;;;;;3.30;63.65;98312.84;5052656;28;20053;-72
2022/02/10 17:44:04;;;;;;;14.65;3.97;;;;;;;3.15;63.32;98300.06;5026726;28;20061;-72
2022/02/10 17:54:28;;;;;;;16.05;4.05;;;;;;;3.21;62.56;98305.22;5011325;28;20050;-70
2022/02/10 17:56:55;;;;;;;18.27;4.47;;;;;;;3.16;62.61;98315.19;5017603;28;20053;-70
2022/02/10 17:59:21;;;;;;;12.13;3.60;;;;;;;3.19;62.55;98310.09;5023928;28;20053;-71
2022/02/10 18:01:48;;;;;;;16.05;3.15;;;;;;;3.17;62.40;98311.41;5027246;28;20049;-72
2022/02/10 18:04:20;;;;;;;12.65;3.53;;;;;;;3.17;62.31;98309.53;5028864;28;20054;-73
2022/02/10 18:06:52;;;;;;;21.17;3.97;;;;;;;3.19;62.28;98317.38;5041675;28;20919;-71
2022/02/10 18:17:22;;;;;;;15.52;3.88;;;;;;;3.21;61.65;98321.44;5024721;28;20058;-72
2022/02/10 18:20:05;;;;;;;17.60;4.32;;;;;;;3.20;61.64;98319.00;5019740;28;20061;-71
2022/02/10 18:23:09;;;;;;;13.65;4.07;;;;;;;3.18;61.35;98311.16;5030430;28;20044;-71
2022/02/10 18:28:20;;;;;;;12.68;3.97;;;;;;;3.14;61.83;98320.06;5026838;28;20127;-71
2022/02/10 18:33:32;;;;;;;15.85;3.40;;;;;;;3.16;61.66;98326.81;5024833;28;20049;-72
2022/02/10 19:10:49;;;;;;;14.85;3.65;;;;;;;3.09;60.63;98318.13;5021913;28;20046;-72
2022/02/10 19:13:18;;;;;;;18.20;4.30;;;;;;;3.10;60.31;98317.06;5031512;28;20464;-73
2022/02/10 19:15:44;;;;;;;13.82;4.40;;;;;;;2.96;60.30;98304.00;5023669;28;20536;-71
2022/02/10 19:18:11;;;;;;;15.98;4.00;;;;;;;3.09;60.11;98318.97;5031385;28;20077;-72
2022/02/10 19:20:41;;;;;;;12.68;3.70;;;;;;;3.02;59.98;98309.47;5025153;28;20123;-70
2022/02/10 19:23:12;;;;;;;16.15;4.88;;;;;;;3.07;59.86;98318.41;5033966;28;20383;-71
2022/02/10 19:25:39;;;;;;;12.68;3.40;;;;;;;3.03;59.91;98317.28;5014315;28;20528;-72
2022/02/10 19:28:07;;;;;;;17.55;3.53;;;;;;;2.96;59.60;98314.81;5024084;28;20545;-72
2022/02/10 19:30:36;;;;;;;14.73;4.03;;;;;;;3.06;59.59;98311.38;5019197;28;20137;-73
2022/02/10 19:33:06;;;;;;;15.15;3.80;;;;;;;3.06;59.35;98324.06;5028513;28;20069;-73
2022/02/10 19:35:39;;;;;;;17.48;4.13;;;;;;;3.00;59.14;98315.09;5013464;28;20046;-72
2022/02/10 19:38:06;;;;;;;19.50;3.70;;;;;;;3.06;59.16;98335.69;5017665;28;20107;-74
2022/02/10 19:40:37;;;;;;;19.60;3.58;;;;;;;2.95;59.17;98337.50;5025892;28;20465;-73
2022/02/10 19:43:03;;;;;;;16.48;3.30;;;;;;;2.96;59.17;98339.13;5002767;28;20410;-73
2022/02/10 19:45:29;;;;;;;13.50;3.72;;;;;;;3.01;59.23;98332.94;5030988;28;20555;-72
2022/02/10 19:47:56;;;;;;;21.08;3.40;;;;;;;2.98;59.12;98353.19;5029221;28;20053;-72
2022/02/10 19:50:27;;;;;;;9.05;3.03;;;;;;;2.91;59.49;98341.78;5026236;28;20149;-73
2022/02/10 19:52:58;;;;;;;13.65;2.80;;;;;;;2.89;59.54;98338.53;5026279;28;20049;-73
2022/02/10 19:55:25;;;;;;;14.73;3.10;;;;;;;2.88;59.47;98333.38;5022255;28;20048;-72
2022/02/10 19:57:57;;;;;;;8.45;2.90;;;;;;;2.87;59.62;98339.88;5018742;28;20502;-71
2022/02/10 20:00:31;;;;;;;12.05;2.63;;;;;;;2.87;59.45;98337.16;5025540;28;20041;-73
2022/02/10 20:02:57;;;;;;;10.90;2.83;;;;;;;2.87;59.36;98334.47;5005895;28;20156;-72
2022/02/10 20:05:26;;;;;;;15.80;2.83;;;;;;;2.87;59.36;98342.56;5022290;28;20076;-71
2022/02/10 20:07:53;;;;;;;11.70;2.83;;;;;;;2.90;59.42;98348.25;5023567;28;20037;-70
2022/02/10 20:10:19;;;;;;;16.17;2.95;;;;;;;2.89;59.29;98338.53;5031722;28;20072;-72
2022/02/10 20:12:46;;;;;;;10.32;2.70;;;;;;;2.86;59.34;98343.63;5022541;28;20552;-71
2022/02/10 20:15:14;;;;;;;12.35;2.75;;;;;;;2.81;59.39;98342.53;5016229;28;20128;-71
2022/02/10 20:17:42;;;;;;;14.60;3.08;;;;;;;2.91;59.05;98347.19;5020299;28;20045;-71
2022/02/10 20:20:09;;;;;;;7.55;2.30;;;;;;;2.84;59.16;98333.91;5010057;28;20096;-72
2022/02/10 20:22:38;;;;;;;12.77;2.50;;;;;;;2.92;58.88;98351.50;5031019;28;20061;-71
2022/02/10 20:25:05;;;;;;;11.05;2.92;;;;;;;2.86;58.91;98355.28;5034171;28;20060;-71
2022/02/10 20:27:32;;;;;;;11.07;2.38;;;;;;;2.81;59.02;98352.50;5017311;28;20526;-73
2022/02/10 20:29:58;;;;;;;13.70;2.57;;;;;;;2.66;59.34;98343.25;5018041;28;20107;-73
2022/02/10 20:32:26;;;;;;;28.98;8.13;;;;;;;2.68;59.40;98348.38;5016668;28;20308;-73
2022/02/10 20:34:52;;;;;;;17.13;5.13;;;;;;;2.76;59.08;98339.00;5025826;28;20068;-74
2022/02/10 20:37:22;;;;;;;19.50;3.78;;;;;;;2.72;58.90;98354.09;5008682;28;20077;-73
2022/02/10 20:39:49;;;;;;;13.60;3.33;;;;;;;2.60;59.46;98349.66;5017639;28;20073;-73
2022/02/10 20:42:18;;;;;;;13.50;2.70;;;;;;;2.59;59.36;98352.66;5045017;28;20050;-74
2022/02/10 20:44:48;;;;;;;15.07;2.60;;;;;;;2.49;59.31;98351.47;4992172;28;20068;-73
2022/02/10 20:47:18;;;;;;;11.05;2.75;;;;;;;2.47;59.52;98345.53;5022302;28;20042;-74
2022/02/10 20:49:46;;;;;;;13.10;2.65;;;;;;;2.58;59.35;98342.91;5029293;28;20053;-74
2022/02/10 20:52:14;;;;;;;11.25;2.53;;;;;;;2.72;58.75;98337.88;5029670;28;20056;-73
2022/02/10 20:54:41;;;;;;;9.68;2.20;;;;;;;2.56;58.93;98351.25;5029246;28;20100;-73
2022/02/10 20:57:08;;;;;;;10.73;2.45;;;;;;;2.58;58.77;98351.00;5017937;28;20057;-73
2022/02/10 20:59:40;;;;;;;10.85;2.15;;;;;;;2.62;58.78;98346.72;5019154;28;20437;-74
2022/02/10 21:02:15;;;;;;;14.20;2.47;;;;;;;2.66;58.70;98345.13;5023753;28;20100;-72
2022/02/10 21:04:56;;;;;;;10.02;2.08;;;;;;;2.75;58.64;98350.84;5026422;28;20050;-72
2022/02/10 21:07:37;;;;;;;10.30;2.28;;;;;;;2.76;58.40;98352.47;5007989;28;20046;-72
2022/02/10 21:10:10;;;;;;;10.73;2.75;;;;;;;2.64;58.44;98347.28;5023784;28;20399;-73
2022/02/10 21:12:40;;;;;;;9.93;2.35;;;;;;;2.63;58.44;98343.75;5019142;28;20445;-72
2022/02/10 21:15:11;;;;;;;11.13;2.35;;;;;;;2.62;58.47;98347.53;5018691;28;20046;-74
2022/02/10 21:17:38;;;;;;;14.65;2.50;;;;;;;2.72;58.17;98349.47;4993949;28;20064;-71
2022/02/10 21:20:06;;;;;;;12.60;2.15;;;;;;;2.75;58.16;98348.16;5028450;28;20100;-72
2022/02/10 21:22:40;;;;;;;10.68;2.00;;;;;;;2.72;58.33;98341.38;5019213;28;20488;-73
2022/02/10 21:27:47;;;;;;;13.30;2.50;;;;;;;2.71;58.34;98347.84;5020749;28;20057;-72
2022/02/10 21:30:16;;;;;;;13.93;2.33;;;;;;;2.72;57.95;98354.88;5015579;28;20052;-73
2022/02/10 21:32:51;;;;;;;11.68;2.55;;;;;;;2.65;58.12;98367.78;5031075;28;20107;-71
2022/02/10 21:35:26;;;;;;;15.60;2.85;;;;;;;2.64;57.97;98363.47;5015192;28;20567;-73
2022/02/10 21:52:34;;;;;;;10.93;2.60;;;;;;;1.84;59.60;98365.69;5017368;28;20065;-70
2022/02/10 22:10:17;;;;;;;9.73;1.95;;;;;;;1.47;61.13;98354.72;5047058;28;20076;-72
2022/02/10 22:21:19;;;;;;;7.05;1.63;;;;;;;1.53;60.94;98332.19;5024473;28;20052;-72
2022/02/10 22:23:37;;;;;;;9.70;1.92;;;;;;;1.57;60.67;98343.28;5023239;28;20041;-73
2022/02/10 22:26:07;;;;;;;6.10;1.85;;;;;;;1.68;60.39;98331.53;5028535;28;20061;-73
2022/02/10 22:28:46;;;;;;;11.88;2.40;;;;;;;1.88;60.14;98336.34;5032460;28;20042;-73
2022/02/10 22:36:22;;;;;;;10.95;2.35;;;;;;;1.92;60.14;98342.84;5005064;28;20148;-71
2022/02/10 22:38:51;;;;;;;;;;;;;;;1.90;59.67;98339.59;5033864;28;20348;-74
2022/02/10 22:41:19;;;;;;;11.68;2.28;;;;;;;1.92;59.60;98355.53;5031034;28;19925;-73
2022/02/10 22:43:48;;;;;;;10.68;2.30;;;;;;;1.99;59.58;98342.66;5030346;28;20048;-72
2022/02/10 22:46:16;;;;;;;5.30;1.67;;;;;;;1.94;59.80;98343.41;5032664;28;20148;-71
2022/02/10 22:48:44;;;;;;;8.32;1.60;;;;;;;1.93;59.71;98344.47;5029048;28;20041;-72
2022/02/10 22:51:11;;;;;;;8.43;2.03;;;;;;;1.94;59.71;98345.28;5043275;28;20107;-72
2022/02/10 22:53:37;;;;;;;10.67;2.40;;;;;;;1.94;59.82;98348.00;5032592;28;20047;-73
2022/02/10 22:56:07;;;;;;;11.43;2.08;;;;;;;2.06;59.50;98345.97;5047024;28;20052;-73
2022/02/10 22:58:36;;;;;;;15.93;3.60;;;;;;;2.00;59.34;98346.16;5026159;28;20077;-72
2022/02/10 23:01:02;;;;;;;7.57;2.00;;;;;;;2.05;59.35;98348.91;5031555;28;20046;-71
2022/02/10 23:03:28;;;;;;;10.73;2.42;;;;;;;1.96;59.54;98335.91;5026554;28;20046;-71
2022/02/10 23:05:56;;;;;;;10.63;2.60;;;;;;;1.97;59.62;98342.91;5031422;28;20095;-72
2022/02/10 23:08:22;;;;;;;7.78;2.08;;;;;;;1.97;59.54;98351.00;5032017;28;20137;-72
2022/02/10 23:10:49;;;;;;;8.68;1.80;;;;;;;1.76;60.05;98354.53;5030883;28;20095;-72
2022/02/10 23:13:18;;;;;;;7.03;1.85;;;;;;;1.88;60.03;98340.94;5030943;28;20099;-71
2022/02/10 23:15:45;;;;;;;10.52;2.15;;;;;;;1.89;59.84;98337.97;5026242;28;20073;-72
2022/02/10 23:18:14;;;;;;;10.25;1.88;;;;;;;1.83;59.93;98350.56;5029587;28;20056;-72
2022/02/10 23:20:41;;;;;;;9.93;1.92;;;;;;;1.75;60.15;98342.94;5029772;28;20045;-71
2022/02/10 23:23:09;;;;;;;9.13;2.08;;;;;;;1.73;60.22;98352.34;5028409;28;20045;-70
2022/02/10 23:25:36;;;;;;;10.45;2.40;;;;;;;1.76;60.14;98347.28;5032440;28;20049;-72
2022/02/10 23:28:03;;;;;;;11.95;2.47;;;;;;;1.78;60.08;98338.91;5023847;28;20577;-72
2022/02/10 23:30:30;;;;;;;12.10;2.50;;;;;;;1.76;60.53;98341.88;5031743;28;20231;-73
2022/02/10 23:33:06;;;;;;;14.77;2.80;;;;;;;1.79;59.99;98333.28;5031146;28;20049;-72
2022/02/10 23:38:12;;;;;;;12.35;3.53;;;;;;;1.74;60.09;98338.63;5021763;28;20502;-73
2022/02/10 23:41:03;;;;;;;12.52;3.55;;;;;;;1.82;59.76;98350.84;5027335;28;20049;-72
2022/02/10 23:43:25;;;;;;;13.80;4.47;;;;;;;1.78;59.80;98339.75;5026087;28;20146;-73
2022/02/10 23:45:52;;;;;;;20.95;6.32;;;;;;;1.77;59.81;98340.81;5027696;28;20054;-73
2022/02/10 23:48:19;;;;;;;19.65;7.53;;;;;;;1.79;60.09;98337.84;5046752;28;20049;-73
2022/02/10 23:50:46;;;;;;;18.80;8.48;;;;;;;1.87;60.00;98340.09;5029318;28;20045;-71
2022/02/10 23:53:13;;;;;;;22.45;6.97;;;;;;;1.86;59.77;98343.03;5002499;28;20584;-73
2022/02/10 23:55:40;;;;;;;19.58;6.55;;;;;;;1.78;59.94;98350.53;5024810;28;20037;-73
